sensor_id;sensor_type;location;lat;lon;timestamp;pressure;altitude;pressure_sealevel;temperature;humidity
64404;BME280;50726;54.912;-8.392;2022-10-18T00:01:17;101512.13;;;42.03;28.17
64404;BME280;50726;54.912;-8.392;2022-10-18T00:03:42;101516.66;;;41.19;28.82
64404;BME280;50726;54.912;-8.392;2022-10-18T00:06:08;101526.06;;;42.89;27.29
64404;BME280;50726;54.912;-8.392;2022-10-18T00:08:38;101526.44;;;42.93;26.08
64404;BME280;50726;54.912;-8.392;2022-10-18T00:11:04;101522.91;;;38.97;28.00
64404;BME280;50726;54.912;-8.392;2022-10-18T00:13:30;101524.44;;;38.64;29.42
64404;BME280;50726;54.912;-8.392;2022-10-18T00:15:58;101508.56;;;42.46;28.08
64404;BME280;50726;54.912;-8.392;2022-10-18T00:18:30;101519.97;;;42.87;27.21
64404;BME280;50726;54.912;-8.392;2022-10-18T00:21:04;101528.28;;;42.62;27.12
64404;BME280;50726;54.912;-8.392;2022-10-18T00:23:31;101525.47;;;41.34;27.45
64404;BME280;50726;54.912;-8.392;2022-10-18T00:28:37;101538.00;;;40.37;28.88
64404;BME280;50726;54.912;-8.392;2022-10-18T00:31:13;101544.00;;;41.78;27.56
64404;BME280;50726;54.912;-8.392;2022-10-18T00:33:39;101537.06;;;40.91;28.79
64404;BME280;50726;54.912;-8.392;2022-10-18T00:36:05;101547.91;;;42.21;28.03
64404;BME280;50726;54.912;-8.392;2022-10-18T00:38:31;101558.38;;;42.57;25.65
64404;BME280;50726;54.912;-8.392;2022-10-18T00:40:57;101564.81;;;41.93;27.12
64404;BME280;50726;54.912;-8.392;2022-10-18T00:43:22;101562.19;;;41.40;26.99
64404;BME280;50726;54.912;-8.392;2022-10-18T00:45:48;101562.34;;;43.17;25.20
64404;BME280;50726;54.912;-8.392;2022-10-18T00:48:16;101565.50;;;42.64;25.71
64404;BME280;50726;54.912;-8.392;2022-10-18T00:50:45;101576.56;;;40.49;27.70
64404;BME280;50726;54.912;-8.392;2022-10-18T00:53:16;101567.91;;;42.03;27.01
64404;BME280;50726;54.912;-8.392;2022-10-18T00:55:43;101557.97;;;43.28;25.92
64404;BME280;50726;54.912;-8.392;2022-10-18T00:58:10;101578.41;;;40.69;27.80
64404;BME280;50726;54.912;-8.392;2022-10-18T01:00:37;101576.28;;;39.83;28.19
64404;BME280;50726;54.912;-8.392;2022-10-18T01:03:07;101578.00;;;40.25;28.27
64404;BME280;50726;54.912;-8.392;2022-10-18T01:05:41;101571.69;;;38.93;29.90
64404;BME280;50726;54.912;-8.392;2022-10-18T01:19:29;101579.22;;;40.97;29.38
64404;BME280;50726;54.912;-8.392;2022-10-18T01:22:06;101590.63;;;40.87;28.54
64404;BME280;50726;54.912;-8.392;2022-10-18T01:32:47;101612.16;;;37.67;31.48
64404;BME280;50726;54.912;-8.392;2022-10-18T01:35:18;101612.81;;;38.27;31.52
64404;BME280;50726;54.912;-8.392;2022-10-18T01:37:48;101617.75;;;39.31;30.47
64404;BME280;50726;54.912;-8.392;2022-10-18T01:40:17;101619.06;;;41.65;28.12
64404;BME280;50726;54.912;-8.392;2022-10-18T01:42:46;101620.84;;;41.46;28.44
64404;BME280;50726;54.912;-8.392;2022-10-18T01:45:14;101609.31;;;41.10;28.09
64404;BME280;50726;54.912;-8.392;2022-10-18T01:47:45;101629.78;;;42.12;27.98
64404;BME280;50726;54.912;-8.392;2022-10-18T01:50:12;101623.78;;;42.22;28.35
64404;BME280;50726;54.912;-8.392;2022-10-18T01:52:48;101611.19;;;42.15;27.67
64404;BME280;50726;54.912;-8.392;2022-10-18T01:55:20;101610.63;;;42.57;27.68
64404;BME280;50726;54.912;-8.392;2022-10-18T01:58:08;101618.09;;;43.12;26.93
64404;BME280;50726;54.912;-8.392;2022-10-18T02:00:43;101619.13;;;42.48;27.38
64404;BME280;50726;54.912;-8.392;2022-10-18T02:03:22;101636.13;;;42.64;26.88
64404;BME280;50726;54.912;-8.392;2022-10-18T02:05:55;101637.59;;;41.77;27.41
64404;BME280;50726;54.912;-8.392;2022-10-18T02:08:43;101633.75;;;43.30;26.82
64404;BME280;50726;54.912;-8.392;2022-10-18T02:11:16;101624.34;;;43.69;26.92
64404;BME280;50726;54.912;-8.392;2022-10-18T02:16:15;101631.63;;;44.36;25.68
64404;BME280;50726;54.912;-8.392;2022-10-18T02:19:39;101631.00;;;45.06;25.38
64404;BME280;50726;54.912;-8.392;2022-10-18T02:21:41;101631.84;;;45.48;24.37
64404;BME280;50726;54.912;-8.392;2022-10-18T02:24:10;101650.38;;;46.79;24.01
64404;BME280;50726;54.912;-8.392;2022-10-18T02:26:37;101646.91;;;46.49;23.87
64404;BME280;50726;54.912;-8.392;2022-10-18T02:29:03;101643.50;;;43.94;25.14
64404;BME280;50726;54.912;-8.392;2022-10-18T02:31:38;101645.91;;;45.34;24.98
64404;BME280;50726;54.912;-8.392;2022-10-18T02:34:32;101652.84;;;44.24;24.93
64404;BME280;50726;54.912;-8.392;2022-10-18T02:37:02;101654.53;;;39.57;28.76
64404;BME280;50726;54.912;-8.392;2022-10-18T02:39:38;101661.47;;;39.18;29.08
64404;BME280;50726;54.912;-8.392;2022-10-18T02:42:09;101661.31;;;42.86;26.45
64404;BME280;50726;54.912;-8.392;2022-10-18T02:44:36;101672.97;;;42.82;25.72
64404;BME280;50726;54.912;-8.392;2022-10-18T02:47:04;101673.91;;;43.69;25.66
64404;BME280;50726;54.912;-8.392;2022-10-18T02:49:31;101674.09;;;44.05;25.18
64404;BME280;50726;54.912;-8.392;2022-10-18T02:51:57;101675.31;;;41.95;26.20
64404;BME280;50726;54.912;-8.392;2022-10-18T02:54:23;101672.25;;;42.17;26.15
64404;BME280;50726;54.912;-8.392;2022-10-18T02:56:49;101678.81;;;42.92;25.65
64404;BME280;50726;54.912;-8.392;2022-10-18T02:59:14;101674.03;;;42.80;25.60
64404;BME280;50726;54.912;-8.392;2022-10-18T03:01:41;101675.44;;;42.71;25.63
64404;BME280;50726;54.912;-8.392;2022-10-18T03:04:06;101672.81;;;42.25;26.26
64404;BME280;50726;54.912;-8.392;2022-10-18T03:06:32;101667.84;;;40.97;26.87
64404;BME280;50726;54.912;-8.392;2022-10-18T03:08:58;101675.22;;;40.43;26.85
64404;BME280;50726;54.912;-8.392;2022-10-18T03:11:24;101655.44;;;41.54;26.88
64404;BME280;50726;54.912;-8.392;2022-10-18T03:13:49;101673.03;;;39.49;27.99
64404;BME280;50726;54.912;-8.392;2022-10-18T03:16:17;101670.75;;;41.16;27.19
64404;BME280;50726;54.912;-8.392;2022-10-18T03:18:43;101676.25;;;39.30;27.82
64404;BME280;50726;54.912;-8.392;2022-10-18T03:21:08;101670.78;;;39.30;28.16
64404;BME280;50726;54.912;-8.392;2022-10-18T03:23:34;101671.28;;;37.96;29.12
64404;BME280;50726;54.912;-8.392;2022-10-18T03:26:00;101671.34;;;37.66;29.73
64404;BME280;50726;54.912;-8.392;2022-10-18T03:28:26;101672.16;;;37.06;30.57
64404;BME280;50726;54.912;-8.392;2022-10-18T03:33:17;101673.44;;;36.57;30.44
64404;BME280;50726;54.912;-8.392;2022-10-18T03:35:43;101661.41;;;36.75;30.47
64404;BME280;50726;54.912;-8.392;2022-10-18T03:38:08;101669.19;;;36.31;30.04
64404;BME280;50726;54.912;-8.392;2022-10-18T03:40:34;101675.16;;;36.35;30.06
64404;BME280;50726;54.912;-8.392;2022-10-18T03:43:00;101674.47;;;38.59;28.50
64404;BME280;50726;54.912;-8.392;2022-10-18T03:45:26;101679.91;;;37.78;29.73
64404;BME280;50726;54.912;-8.392;2022-10-18T03:47:51;101668.03;;;38.95;29.10
64404;BME280;50726;54.912;-8.392;2022-10-18T03:50:19;101660.66;;;38.67;29.06
64404;BME280;50726;54.912;-8.392;2022-10-18T03:52:44;101668.75;;;37.04;29.75
64404;BME280;50726;54.912;-8.392;2022-10-18T03:55:10;101679.50;;;36.21;31.95
64404;BME280;50726;54.912;-8.392;2022-10-18T03:57:36;101693.06;;;34.33;33.18
64404;BME280;50726;54.912;-8.392;2022-10-18T04:00:03;101711.00;;;34.17;34.56
64404;BME280;50726;54.912;-8.392;2022-10-18T04:02:28;101717.47;;;35.74;31.92
64404;BME280;50726;54.912;-8.392;2022-10-18T04:04:54;101718.25;;;35.01;33.13
64404;BME280;50726;54.912;-8.392;2022-10-18T04:07:20;101713.91;;;36.05;31.89
64404;BME280;50726;54.912;-8.392;2022-10-18T04:09:45;101699.72;;;36.50;30.80
64404;BME280;50726;54.912;-8.392;2022-10-18T04:12:12;101697.47;;;34.42;34.01
64404;BME280;50726;54.912;-8.392;2022-10-18T04:14:37;101686.66;;;32.30;37.50
64404;BME280;50726;54.912;-8.392;2022-10-18T04:17:03;101693.88;;;33.73;35.64
64404;BME280;50726;54.912;-8.392;2022-10-18T04:19:29;101705.19;;;34.72;33.20
64404;BME280;50726;54.912;-8.392;2022-10-18T04:21:54;101708.25;;;36.47;33.07
64404;BME280;50726;54.912;-8.392;2022-10-18T04:24:20;101721.84;;;35.83;32.85
64404;BME280;50726;54.912;-8.392;2022-10-18T04:26:46;101727.56;;;36.37;32.19
64404;BME280;50726;54.912;-8.392;2022-10-18T04:29:11;101704.66;;;37.46;31.08
64404;BME280;50726;54.912;-8.392;2022-10-18T04:31:37;101711.72;;;37.56;30.83
64404;BME280;50726;54.912;-8.392;2022-10-18T04:34:02;101718.09;;;37.18;31.12
64404;BME280;50726;54.912;-8.392;2022-10-18T04:36:29;101724.91;;;35.24;33.39
64404;BME280;50726;54.912;-8.392;2022-10-18T04:38:55;101740.44;;;33.95;34.96
64404;BME280;50726;54.912;-8.392;2022-10-18T04:41:22;101743.28;;;34.28;34.93
64404;BME280;50726;54.912;-8.392;2022-10-18T04:43:47;101752.22;;;34.04;34.64
64404;BME280;50726;54.912;-8.392;2022-10-18T04:46:13;101752.44;;;35.12;33.89
64404;BME280;50726;54.912;-8.392;2022-10-18T04:48:39;101755.97;;;35.29;32.81
64404;BME280;50726;54.912;-8.392;2022-10-18T04:51:04;101753.22;;;33.77;34.86
64404;BME280;50726;54.912;-8.392;2022-10-18T04:53:30;101750.06;;;33.55;36.41
64404;BME280;50726;54.912;-8.392;2022-10-18T04:55:57;101744.44;;;33.30;36.17
64404;BME280;50726;54.912;-8.392;2022-10-18T04:58:22;101755.06;;;32.68;35.92
64404;BME280;50726;54.912;-8.392;2022-10-18T05:00:48;101749.50;;;34.80;35.98
64404;BME280;50726;54.912;-8.392;2022-10-18T05:03:15;101748.56;;;32.61;36.66
64404;BME280;50726;54.912;-8.392;2022-10-18T05:05:41;101744.06;;;32.88;36.21
64404;BME280;50726;54.912;-8.392;2022-10-18T05:08:07;101760.06;;;35.33;34.07
64404;BME280;50726;54.912;-8.392;2022-10-18T05:10:33;101749.78;;;34.52;33.28
64404;BME280;50726;54.912;-8.392;2022-10-18T05:12:59;101761.84;;;31.60;36.16
64404;BME280;50726;54.912;-8.392;2022-10-18T05:15:24;101771.63;;;30.63;39.20
64404;BME280;50726;54.912;-8.392;2022-10-18T05:17:50;101771.03;;;32.15;37.48
64404;BME280;50726;54.912;-8.392;2022-10-18T05:20:15;101779.16;;;29.87;40.90
64404;BME280;50726;54.912;-8.392;2022-10-18T05:22:42;101770.94;;;32.81;35.50
64404;BME280;50726;54.912;-8.392;2022-10-18T05:25:08;101779.47;;;33.05;35.23
64404;BME280;50726;54.912;-8.392;2022-10-18T05:27:33;101788.88;;;30.81;38.71
64404;BME280;50726;54.912;-8.392;2022-10-18T05:29:59;101781.78;;;35.42;34.20
64404;BME280;50726;54.912;-8.392;2022-10-18T05:32:26;101794.06;;;36.74;33.00
64404;BME280;50726;54.912;-8.392;2022-10-18T05:34:51;101789.59;;;35.45;31.85
64404;BME280;50726;54.912;-8.392;2022-10-18T05:37:18;101783.59;;;35.83;33.45
64404;BME280;50726;54.912;-8.392;2022-10-18T05:39:43;101795.56;;;35.40;32.02
64404;BME280;50726;54.912;-8.392;2022-10-18T05:42:11;101799.75;;;34.76;32.12
64404;BME280;50726;54.912;-8.392;2022-10-18T05:44:37;101791.47;;;33.20;34.10
64404;BME280;50726;54.912;-8.392;2022-10-18T05:47:03;101789.25;;;35.56;32.66
64404;BME280;50726;54.912;-8.392;2022-10-18T05:49:30;101799.22;;;35.81;32.57
64404;BME280;50726;54.912;-8.392;2022-10-18T05:51:55;101801.34;;;35.37;32.30
64404;BME280;50726;54.912;-8.392;2022-10-18T05:54:21;101802.69;;;35.66;32.51
64404;BME280;50726;54.912;-8.392;2022-10-18T05:56:46;101805.78;;;35.30;32.00
64404;BME280;50726;54.912;-8.392;2022-10-18T05:59:12;101817.59;;;37.76;30.51
64404;BME280;50726;54.912;-8.392;2022-10-18T06:01:39;101817.31;;;38.89;29.66
64404;BME280;50726;54.912;-8.392;2022-10-18T06:04:05;101807.22;;;38.68;29.10
64404;BME280;50726;54.912;-8.392;2022-10-18T06:06:31;101822.47;;;40.27;27.34
64404;BME280;50726;54.912;-8.392;2022-10-18T06:08:58;101825.13;;;39.65;27.69
64404;BME280;50726;54.912;-8.392;2022-10-18T06:11:24;101821.06;;;38.88;28.03
64404;BME280;50726;54.912;-8.392;2022-10-18T06:13:50;101829.50;;;39.08;29.04
64404;BME280;50726;54.912;-8.392;2022-10-18T06:16:18;101838.09;;;39.27;29.23
64404;BME280;50726;54.912;-8.392;2022-10-18T06:18:53;101827.59;;;38.65;28.70
64404;BME280;50726;54.912;-8.392;2022-10-18T06:21:21;101848.84;;;32.98;34.76
64404;BME280;50726;54.912;-8.392;2022-10-18T06:23:51;101851.19;;;36.59;30.89
64404;BME280;50726;54.912;-8.392;2022-10-18T06:26:17;101853.00;;;33.91;33.07
64404;BME280;50726;54.912;-8.392;2022-10-18T06:28:44;101856.41;;;35.39;32.41
64404;BME280;50726;54.912;-8.392;2022-10-18T06:31:11;101857.88;;;36.00;31.72
64404;BME280;50726;54.912;-8.392;2022-10-18T06:33:37;101866.59;;;35.45;30.67
64404;BME280;50726;54.912;-8.392;2022-10-18T06:36:05;101877.91;;;32.39;35.73
64404;BME280;50726;54.912;-8.392;2022-10-18T06:38:32;101859.81;;;36.39;31.81
64404;BME280;50726;54.912;-8.392;2022-10-18T06:40:59;101873.53;;;36.46;30.46
64404;BME280;50726;54.912;-8.392;2022-10-18T06:43:25;101872.28;;;39.67;28.93
64404;BME280;50726;54.912;-8.392;2022-10-18T06:45:52;101874.59;;;38.09;29.05
64404;BME280;50726;54.912;-8.392;2022-10-18T06:48:19;101868.44;;;39.11;28.85
64404;BME280;50726;54.912;-8.392;2022-10-18T06:51:02;101873.34;;;36.16;30.87
64404;BME280;50726;54.912;-8.392;2022-10-18T06:53:31;101871.81;;;36.05;29.59
64404;BME280;50726;54.912;-8.392;2022-10-18T06:56:05;101877.13;;;37.33;29.77
64404;BME280;50726;54.912;-8.392;2022-10-18T06:58:32;101876.16;;;36.31;29.66
64404;BME280;50726;54.912;-8.392;2022-10-18T07:01:07;101861.78;;;34.38;32.98
64404;BME280;50726;54.912;-8.392;2022-10-18T07:03:33;101881.41;;;35.84;31.03
64404;BME280;50726;54.912;-8.392;2022-10-18T07:06:01;101892.84;;;33.64;34.40
64404;BME280;50726;54.912;-8.392;2022-10-18T07:08:27;101891.94;;;35.21;31.00
64404;BME280;50726;54.912;-8.392;2022-10-18T07:10:53;101888.41;;;36.35;30.81
64404;BME280;50726;54.912;-8.392;2022-10-18T07:13:19;101893.06;;;33.71;31.36
64404;BME280;50726;54.912;-8.392;2022-10-18T07:15:45;101884.06;;;36.01;30.03
64404;BME280;50726;54.912;-8.392;2022-10-18T07:18:10;101886.50;;;34.61;31.23
64404;BME280;50726;54.912;-8.392;2022-10-18T07:20:36;101897.13;;;34.98;32.26
64404;BME280;50726;54.912;-8.392;2022-10-18T07:23:02;101893.59;;;36.22;31.44
64404;BME280;50726;54.912;-8.392;2022-10-18T07:25:30;101894.72;;;37.54;30.13
64404;BME280;50726;54.912;-8.392;2022-10-18T07:27:55;101899.09;;;35.39;31.36
64404;BME280;50726;54.912;-8.392;2022-10-18T07:30:21;101914.72;;;35.45;31.03
64404;BME280;50726;54.912;-8.392;2022-10-18T07:32:46;101909.00;;;36.78;29.42
64404;BME280;50726;54.912;-8.392;2022-10-18T07:35:12;101922.00;;;36.99;29.80
64404;BME280;50726;54.912;-8.392;2022-10-18T07:37:38;101911.63;;;37.26;29.42
64404;BME280;50726;54.912;-8.392;2022-10-18T07:40:03;101917.91;;;37.12;29.81
64404;BME280;50726;54.912;-8.392;2022-10-18T07:42:29;101917.09;;;35.90;30.87
64404;BME280;50726;54.912;-8.392;2022-10-18T07:44:55;101917.97;;;35.65;31.33
64404;BME280;50726;54.912;-8.392;2022-10-18T07:47:20;101924.41;;;35.47;32.18
64404;BME280;50726;54.912;-8.392;2022-10-18T07:49:46;101933.44;;;35.98;31.76
64404;BME280;50726;54.912;-8.392;2022-10-18T07:52:11;101935.13;;;35.66;32.37
64404;BME280;50726;54.912;-8.392;2022-10-18T07:54:37;101930.03;;;35.71;31.83
64404;BME280;50726;54.912;-8.392;2022-10-18T07:57:03;101936.84;;;35.83;32.24
64404;BME280;50726;54.912;-8.392;2022-10-18T07:59:29;101942.72;;;33.90;33.47
64404;BME280;50726;54.912;-8.392;2022-10-18T08:01:54;101933.41;;;32.15;36.78
64404;BME280;50726;54.912;-8.392;2022-10-18T08:04:20;101930.53;;;35.41;33.45
64404;BME280;50726;54.912;-8.392;2022-10-18T08:06:46;101941.53;;;35.23;32.84
64404;BME280;50726;54.912;-8.392;2022-10-18T08:09:12;101935.31;;;35.81;32.46
64404;BME280;50726;54.912;-8.392;2022-10-18T08:11:37;101944.44;;;35.30;33.31
64404;BME280;50726;54.912;-8.392;2022-10-18T08:14:03;101949.75;;;35.90;32.48
64404;BME280;50726;54.912;-8.392;2022-10-18T08:16:29;101935.28;;;34.79;33.90
64404;BME280;50726;54.912;-8.392;2022-10-18T08:18:59;101938.19;;;34.86;33.69
64404;BME280;50726;54.912;-8.392;2022-10-18T08:21:25;101936.53;;;35.61;33.77
64404;BME280;50726;54.912;-8.392;2022-10-18T08:23:51;101947.22;;;34.95;34.21
64404;BME280;50726;54.912;-8.392;2022-10-18T08:26:21;101956.50;;;35.27;34.60
64404;BME280;50726;54.912;-8.392;2022-10-18T08:28:47;101941.22;;;35.34;33.72
64404;BME280;50726;54.912;-8.392;2022-10-18T08:31:16;101950.72;;;34.44;35.20
64404;BME280;50726;54.912;-8.392;2022-10-18T08:33:45;101952.41;;;33.19;36.66
64404;BME280;50726;54.912;-8.392;2022-10-18T08:36:14;101959.69;;;34.63;35.60
64404;BME280;50726;54.912;-8.392;2022-10-18T08:38:41;101950.44;;;34.55;35.16
64404;BME280;50726;54.912;-8.392;2022-10-18T08:41:28;101957.09;;;35.64;35.10
64404;BME280;50726;54.912;-8.392;2022-10-18T08:44:10;101962.00;;;36.10;34.43
64404;BME280;50726;54.912;-8.392;2022-10-18T08:46:44;101969.59;;;36.40;33.88
64404;BME280;50726;54.912;-8.392;2022-10-18T08:49:25;101969.16;;;37.40;32.75
64404;BME280;50726;54.912;-8.392;2022-10-18T08:51:54;101970.66;;;37.42;32.71
64404;BME280;50726;54.912;-8.392;2022-10-18T08:54:42;101969.78;;;35.47;34.92
64404;BME280;50726;54.912;-8.392;2022-10-18T08:57:16;101974.16;;;36.48;34.35
64404;BME280;50726;54.912;-8.392;2022-10-18T08:59:42;101973.94;;;36.74;32.79
64404;BME280;50726;54.912;-8.392;2022-10-18T09:18:50;101975.44;;;39.23;31.74
64404;BME280;50726;54.912;-8.392;2022-10-18T09:24:17;101985.81;;;38.45;32.42
64404;BME280;50726;54.912;-8.392;2022-10-18T09:26:48;101984.50;;;38.41;33.20
64404;BME280;50726;54.912;-8.392;2022-10-18T09:34:56;101983.78;;;40.79;30.15
64404;BME280;50726;54.912;-8.392;2022-10-18T09:37:23;101983.84;;;40.86;31.14
64404;BME280;50726;54.912;-8.392;2022-10-18T09:39:55;101979.63;;;40.83;30.65
64404;BME280;50726;54.912;-8.392;2022-10-18T09:42:30;101982.13;;;41.54;29.62
64404;BME280;50726;54.912;-8.392;2022-10-18T09:45:29;101980.75;;;40.60;30.67
64404;BME280;50726;54.912;-8.392;2022-10-18T09:48:13;101982.81;;;38.40;32.92
64404;BME280;50726;54.912;-8.392;2022-10-18T09:50:51;101978.16;;;40.45;30.51
64404;BME280;50726;54.912;-8.392;2022-10-18T09:53:35;101982.00;;;39.06;32.07
64404;BME280;50726;54.912;-8.392;2022-10-18T09:56:34;101969.56;;;39.63;31.30
64404;BME280;50726;54.912;-8.392;2022-10-18T09:59:02;101961.03;;;38.47;33.12
64404;BME280;50726;54.912;-8.392;2022-10-18T10:01:29;101965.31;;;36.62;35.04
64404;BME280;50726;54.912;-8.392;2022-10-18T10:03:56;101963.25;;;36.64;34.89
64404;BME280;50726;54.912;-8.392;2022-10-18T10:06:25;101959.31;;;37.62;35.03
64404;BME280;50726;54.912;-8.392;2022-10-18T10:09:03;101960.44;;;37.68;34.76
64404;BME280;50726;54.912;-8.392;2022-10-18T10:11:38;101957.22;;;40.02;32.77
64404;BME280;50726;54.912;-8.392;2022-10-18T10:14:18;101944.56;;;38.55;33.80
64404;BME280;50726;54.912;-8.392;2022-10-18T10:17:05;101955.16;;;39.54;33.75
64404;BME280;50726;54.912;-8.392;2022-10-18T10:20:00;101956.78;;;39.48;32.28
64404;BME280;50726;54.912;-8.392;2022-10-18T10:22:37;101956.25;;;38.64;33.92
64404;BME280;50726;54.912;-8.392;2022-10-18T10:25:04;101957.16;;;37.72;35.60
64404;BME280;50726;54.912;-8.392;2022-10-18T10:27:38;101950.94;;;38.47;32.54
64404;BME280;50726;54.912;-8.392;2022-10-18T10:32:48;101961.25;;;36.90;36.64
64404;BME280;50726;54.912;-8.392;2022-10-18T10:35:32;101948.13;;;37.72;35.15
64404;BME280;50726;54.912;-8.392;2022-10-18T10:37:59;101955.25;;;36.94;36.50
64404;BME280;50726;54.912;-8.392;2022-10-18T10:40:32;101952.13;;;37.99;35.67
64404;BME280;50726;54.912;-8.392;2022-10-18T10:43:17;101962.41;;;37.97;36.55
64404;BME280;50726;54.912;-8.392;2022-10-18T10:48:25;101973.22;;;37.67;36.31
64404;BME280;50726;54.912;-8.392;2022-10-18T10:51:09;101976.50;;;37.39;36.25
64404;BME280;50726;54.912;-8.392;2022-10-18T10:53:59;101965.47;;;37.32;34.70
64404;BME280;50726;54.912;-8.392;2022-10-18T10:56:27;101970.50;;;37.44;36.24
64404;BME280;50726;54.912;-8.392;2022-10-18T10:58:57;101968.22;;;39.37;34.14
64404;BME280;50726;54.912;-8.392;2022-10-18T11:01:35;101972.59;;;38.94;33.41
64404;BME280;50726;54.912;-8.392;2022-10-18T11:04:28;101961.81;;;41.68;31.10
64404;BME280;50726;54.912;-8.392;2022-10-18T11:07:04;101969.97;;;38.86;33.01
64404;BME280;50726;54.912;-8.392;2022-10-18T11:09:44;101969.13;;;41.07;31.41
64404;BME280;50726;54.912;-8.392;2022-10-18T11:14:46;101984.38;;;42.38;29.96
64404;BME280;50726;54.912;-8.392;2022-10-18T11:20:06;101981.16;;;42.48;29.61
64404;BME280;50726;54.912;-8.392;2022-10-18T11:25:13;101989.06;;;41.50;30.28
64404;BME280;50726;54.912;-8.392;2022-10-18T11:27:46;101988.66;;;40.06;31.64
64404;BME280;50726;54.912;-8.392;2022-10-18T11:35:46;101980.69;;;39.02;32.37
64404;BME280;50726;54.912;-8.392;2022-10-18T11:38:44;101990.09;;;39.37;31.74
64404;BME280;50726;54.912;-8.392;2022-10-18T11:41:36;101981.81;;;40.24;31.38
64404;BME280;50726;54.912;-8.392;2022-10-18T11:54:51;101972.09;;;40.99;31.18
64404;BME280;50726;54.912;-8.392;2022-10-18T11:57:41;101975.38;;;41.90;29.85
64404;BME280;50726;54.912;-8.392;2022-10-18T12:00:20;101976.94;;;41.03;30.54
64404;BME280;50726;54.912;-8.392;2022-10-18T12:03:27;101999.91;;;40.47;30.58
64404;BME280;50726;54.912;-8.392;2022-10-18T12:06:00;101987.59;;;41.54;30.57
64404;BME280;50726;54.912;-8.392;2022-10-18T12:11:08;101970.28;;;39.50;32.02
64404;BME280;50726;54.912;-8.392;2022-10-18T12:13:47;101975.44;;;39.01;33.05
64404;BME280;50726;54.912;-8.392;2022-10-18T12:16:14;101977.44;;;38.77;33.13
64404;BME280;50726;54.912;-8.392;2022-10-18T12:19:03;101974.63;;;38.01;33.94
64404;BME280;50726;54.912;-8.392;2022-10-18T12:21:31;101971.31;;;36.89;36.02
64404;BME280;50726;54.912;-8.392;2022-10-18T12:24:05;101962.38;;;37.04;36.11
64404;BME280;50726;54.912;-8.392;2022-10-18T12:26:33;101966.16;;;37.03;37.05
64404;BME280;50726;54.912;-8.392;2022-10-18T12:32:14;101964.69;;;37.47;35.64
64404;BME280;50726;54.912;-8.392;2022-10-18T12:34:57;101960.03;;;40.93;32.83
64404;BME280;50726;54.912;-8.392;2022-10-18T12:42:31;101976.59;;;36.34;37.44
64404;BME280;50726;54.912;-8.392;2022-10-18T12:47:37;101969.59;;;36.48;36.73
64404;BME280;50726;54.912;-8.392;2022-10-18T12:50:21;101960.66;;;37.58;35.94
64404;BME280;50726;54.912;-8.392;2022-10-18T12:53:28;101938.84;;;39.96;33.12
64404;BME280;50726;54.912;-8.392;2022-10-18T12:55:54;101943.44;;;37.57;35.29
64404;BME280;50726;54.912;-8.392;2022-10-18T12:58:40;101949.41;;;37.14;36.18
64404;BME280;50726;54.912;-8.392;2022-10-18T13:01:07;101939.78;;;36.47;37.17
64404;BME280;50726;54.912;-8.392;2022-10-18T13:03:52;101940.25;;;36.99;36.51
64404;BME280;50726;54.912;-8.392;2022-10-18T13:06:19;101935.78;;;35.34;37.40
64404;BME280;50726;54.912;-8.392;2022-10-18T13:08:45;101931.69;;;36.13;37.77
64404;BME280;50726;54.912;-8.392;2022-10-18T13:11:28;101914.69;;;38.23;35.37
64404;BME280;50726;54.912;-8.392;2022-10-18T13:14:15;101918.38;;;37.07;35.94
64404;BME280;50726;54.912;-8.392;2022-10-18T13:16:50;101929.75;;;38.34;34.23
64404;BME280;50726;54.912;-8.392;2022-10-18T13:19:30;101924.59;;;40.07;32.58
64404;BME280;50726;54.912;-8.392;2022-10-18T13:28:21;101933.56;;;37.80;35.02
64404;BME280;50726;54.912;-8.392;2022-10-18T13:33:34;101914.63;;;37.55;34.47
64404;BME280;50726;54.912;-8.392;2022-10-18T13:41:20;101922.63;;;39.22;32.26
64404;BME280;50726;54.912;-8.392;2022-10-18T13:57:16;101930.50;;;40.04;31.48
64404;BME280;50726;54.912;-8.392;2022-10-18T14:11:23;101917.78;;;39.02;31.69
64404;BME280;50726;54.912;-8.392;2022-10-18T14:14:03;101916.84;;;38.43;33.78
64404;BME280;50726;54.912;-8.392;2022-10-18T14:19:27;101924.97;;;38.36;33.42
64404;BME280;50726;54.912;-8.392;2022-10-18T14:22:05;101920.81;;;38.10;33.99
64404;BME280;50726;54.912;-8.392;2022-10-18T14:24:34;101906.03;;;38.87;33.19
64404;BME280;50726;54.912;-8.392;2022-10-18T14:29:42;101902.03;;;41.23;29.61
64404;BME280;50726;54.912;-8.392;2022-10-18T14:32:21;101908.00;;;41.54;29.81
64404;BME280;50726;54.912;-8.392;2022-10-18T14:34:47;101901.19;;;39.04;32.38
64404;BME280;50726;54.912;-8.392;2022-10-18T14:37:27;101905.19;;;40.37;30.95
64404;BME280;50726;54.912;-8.392;2022-10-18T14:39:54;101911.81;;;38.01;33.76
64404;BME280;50726;54.912;-8.392;2022-10-18T14:42:22;101899.50;;;37.91;33.26
64404;BME280;50726;54.912;-8.392;2022-10-18T14:44:49;101906.06;;;39.81;32.28
64404;BME280;50726;54.912;-8.392;2022-10-18T14:47:20;101903.00;;;38.60;33.67
64404;BME280;50726;54.912;-8.392;2022-10-18T14:49:47;101908.34;;;37.54;34.58
64404;BME280;50726;54.912;-8.392;2022-10-18T14:52:23;101893.72;;;38.09;34.30
64404;BME280;50726;54.912;-8.392;2022-10-18T14:54:53;101900.72;;;39.44;33.20
64404;BME280;50726;54.912;-8.392;2022-10-18T14:57:37;101906.47;;;39.05;33.13
64404;BME280;50726;54.912;-8.392;2022-10-18T15:00:07;101894.59;;;38.98;33.45
64404;BME280;50726;54.912;-8.392;2022-10-18T15:02:37;101888.25;;;38.76;32.58
64404;BME280;50726;54.912;-8.392;2022-10-18T15:05:16;101890.53;;;37.43;34.78
64404;BME280;50726;54.912;-8.392;2022-10-18T15:07:47;101892.78;;;36.61;35.42
64404;BME280;50726;54.912;-8.392;2022-10-18T15:10:25;101885.72;;;38.74;33.73
64404;BME280;50726;54.912;-8.392;2022-10-18T15:12:53;101881.53;;;37.58;35.35
64404;BME280;50726;54.912;-8.392;2022-10-18T15:15:27;101890.28;;;37.06;35.22
64404;BME280;50726;54.912;-8.392;2022-10-18T15:17:54;101878.78;;;37.19;35.38